Time;durP1;ratioP1;P1;durP2;ratioP2;P2;SDS_P1;SDS_P2;PMS_P1;PMS_P2;Temp;Humidity;BMP_temperature;BMP_pressure;BME280_temperature;BME280_humidity;BME280_pressure;Samples;Min_cycle;Max_cycle;Signal;HPM_P1;HPM_P2
2021/10/03 00:01:24;;;;;;;;;;;;;;;13.27;100.00;100503.23;1645353;85;20146;-83
2021/10/03 00:03:50;;;;;;;;;;;;;;;13.27;100.00;100498.44;1647211;86;21111;-81
2021/10/03 00:06:16;;;;;;;;;;;;;;;13.26;100.00;100502.89;1647877;86;20180;-84
2021/10/03 00:08:42;;;;;;;;;;;;;;;13.23;100.00;100503.22;1647338;86;21788;-81
2021/10/03 00:11:08;;;;;;;;;;;;;;;13.17;100.00;100505.20;1640485;86;20139;-80
2021/10/03 00:13:33;;;;;;;;;;;;;;;13.17;100.00;100497.25;1648496;86;20269;-82
2021/10/03 00:15:59;;;;;;;;;;;;;;;13.14;100.00;100497.58;1645953;86;20122;-81
2021/10/03 00:18:25;;;;;;;;;;;;;;;13.11;100.00;100504.06;1646345;86;20202;-82
2021/10/03 00:20:51;;;;;;;;;;;;;;;13.14;100.00;100497.58;1648369;86;21908;-87
2021/10/03 00:23:16;;;;;;;;;;;;;;;13.14;100.00;100496.77;1647480;86;20244;-87
2021/10/03 00:25:42;;;;;;;;;;;;;;;13.07;100.00;100498.74;1647519;86;20479;-82
2021/10/03 00:28:08;;;;;;;;;;;;;;;13.00;100.00;100503.53;1644263;86;20151;-83
2021/10/03 00:30:35;;;;;;;;;;;;;;;13.01;100.00;100505.20;1636959;86;20294;-82
2021/10/03 00:33:01;;;;;;;;;;;;;;;13.02;100.00;100509.49;1637174;87;21076;-82
2021/10/03 00:35:26;;;;;;;;;;;;;;;12.85;100.00;100498.88;1634394;87;20305;-81
2021/10/03 00:37:52;;;;;;;;;;;;;;;12.92;100.00;100515.77;1636236;86;20229;-83
2021/10/03 00:40:18;;;;;;;;;;;;;;;12.93;100.00;100520.09;1637308;87;20205;-81
2021/10/03 00:42:43;;;;;;;;;;;;;;;12.93;100.00;100528.05;1637663;87;20163;-81
2021/10/03 00:45:10;;;;;;;;;;;;;;;12.93;100.00;100522.74;1638875;86;21246;-81
2021/10/03 00:47:35;;;;;;;;;;;;;;;12.92;100.00;100519.75;1637102;86;20159;-86
2021/10/03 00:50:01;;;;;;;;;;;;;;;12.91;100.00;100523.41;1634190;86;20202;-85
2021/10/03 00:52:26;;;;;;;;;;;;;;;12.91;100.00;100524.73;1636636;87;20171;-80
2021/10/03 00:54:52;;;;;;;;;;;;;;;12.91;100.00;100527.39;1638821;86;20289;-81
2021/10/03 00:57:18;;;;;;;;;;;;;;;12.91;100.00;100527.39;1638440;87;21178;-79
2021/10/03 00:59:43;;;;;;;;;;;;;;;12.89;100.00;100526.70;1634987;87;20167;-82
2021/10/03 01:02:09;;;;;;;;;;;;;;;12.85;100.00;100530.69;1635592;87;20222;-84
2021/10/03 01:04:34;;;;;;;;;;;;;;;12.81;100.00;100524.03;1637690;86;20151;-81
2021/10/03 01:07:00;;;;;;;;;;;;;;;12.79;100.00;100518.08;1637974;86;20190;-79
2021/10/03 01:09:25;;;;;;;;;;;;;;;12.80;100.00;100518.39;1638598;87;21258;-80
2021/10/03 01:11:51;;;;;;;;;;;;;;;12.77;100.00;100517.42;1613391;87;20803;-83
2021/10/03 01:14:17;;;;;;;;;;;;;;;12.75;100.00;100515.41;1638263;86;20194;-82
2021/10/03 01:16:42;;;;;;;;;;;;;;;12.78;100.00;100519.05;1640497;86;20165;-81
2021/10/03 01:19:08;;;;;;;;;;;;;;;12.78;100.00;100513.75;1638776;86;20721;-84
2021/10/03 01:21:34;;;;;;;;;;;;;;;12.78;100.00;100512.44;1637736;86;21102;-82
2021/10/03 01:23:59;;;;;;;;;;;;;;;12.76;100.00;100510.45;1637979;86;20338;-85
2021/10/03 01:26:26;;;;;;;;;;;;;;;12.77;100.00;100516.09;1637290;87;20215;-79
2021/10/03 01:28:53;;;;;;;;;;;;;;;12.78;100.00;100507.13;1644632;85;20205;-81
2021/10/03 01:31:23;;;;;;;;;;;;;;;12.74;100.00;100507.96;1611618;87;20182;-83
2021/10/03 01:33:48;;;;;;;;;;;;;;;12.77;100.00;100506.81;1632133;86;21020;-82
2021/10/03 01:36:14;;;;;;;;;;;;;;;12.78;100.00;100509.78;1627909;87;20185;-81
2021/10/03 01:38:39;;;;;;;;;;;;;;;12.80;99.92;100509.11;1629427;86;20191;-81
2021/10/03 01:41:06;;;;;;;;;;;;;;;12.75;99.84;100508.78;1633364;86;20499;-82
2021/10/03 01:43:32;;;;;;;;;;;;;;;12.73;100.00;100513.42;1627675;86;20221;-82
2021/10/03 01:45:58;;;;;;;;;;;;;;;12.73;99.81;100510.27;1631678;86;21879;-81
2021/10/03 01:48:24;;;;;;;;;;;;;;;12.68;100.00;100503.30;1634854;86;20161;-81
2021/10/03 01:50:52;;;;;;;;;;;;;;;12.71;100.00;100507.46;1626523;86;20264;-82
2021/10/03 01:53:23;;;;;;;;;;;;;;;12.69;99.84;100502.80;1626933;86;20139;-78
2021/10/03 01:55:49;;;;;;;;;;;;;;;12.68;99.97;100495.86;1656793;86;20210;-81
2021/10/03 01:58:16;;;;;;;;;;;;;;;12.66;99.94;100497.34;1654604;86;21176;-82
2021/10/03 02:00:44;;;;;;;;;;;;;;;12.59;100.00;100498.15;1644720;86;20161;-82
2021/10/03 02:03:11;;;;;;;;;;;;;;;12.57;100.00;100491.19;1652001;86;20209;-80
2021/10/03 02:05:38;;;;;;;;;;;;;;;12.58;100.00;100488.03;1657650;86;20300;-80
2021/10/03 02:08:06;;;;;;;;;;;;;;;12.57;100.00;100482.41;1610281;87;20174;-87
2021/10/03 02:10:32;;;;;;;;;;;;;;;12.53;100.00;100484.53;1629598;87;21339;-82
2021/10/03 02:12:57;;;;;;;;;;;;;;;12.54;100.00;100476.93;1633759;86;20919;-84
2021/10/03 02:15:23;;;;;;;;;;;;;;;12.45;100.00;100465.97;1630956;86;20205;-82
2021/10/03 02:17:48;;;;;;;;;;;;;;;12.45;100.00;100471.27;1636879;86;20449;-83
2021/10/03 02:20:16;;;;;;;;;;;;;;;12.45;100.00;100467.30;1634859;86;20139;-84
2021/10/03 02:22:42;;;;;;;;;;;;;;;12.42;100.00;100468.95;1632293;86;21084;-81
2021/10/03 02:25:08;;;;;;;;;;;;;;;12.46;100.00;100472.94;1628883;87;20210;-81
2021/10/03 02:27:33;;;;;;;;;;;;;;;12.47;100.00;100475.91;1635404;86;20197;-82
2021/10/03 02:29:59;;;;;;;;;;;;;;;12.49;99.93;100469.12;1626332;86;20171;-82
2021/10/03 02:32:25;;;;;;;;;;;;;;;12.44;99.86;100469.60;1630002;86;20475;-83
2021/10/03 02:34:50;;;;;;;;;;;;;;;12.36;100.00;100467.75;1627878;86;21172;-82
2021/10/03 02:37:16;;;;;;;;;;;;;;;12.40;100.00;100469.61;1631655;86;20145;-87
2021/10/03 02:39:42;;;;;;;;;;;;;;;12.34;99.95;100472.39;1630861;86;20401;-83
2021/10/03 02:42:07;;;;;;;;;;;;;;;12.36;100.00;100464.29;1635102;86;20127;-83
2021/10/03 02:44:33;;;;;;;;;;;;;;;12.36;100.00;100470.41;1648248;86;20145;-83
2021/10/03 02:47:00;;;;;;;;;;;;;;;12.38;99.89;100465.80;1645114;86;22012;-83
2021/10/03 02:49:26;;;;;;;;;;;;;;;12.37;99.85;100463.31;1646485;86;20123;-82
2021/10/03 02:51:52;;;;;;;;;;;;;;;12.33;100.00;100464.10;1644412;86;20146;-83
2021/10/03 02:54:17;;;;;;;;;;;;;;;12.36;100.00;100465.61;1648023;86;20157;-82
2021/10/03 02:56:43;;;;;;;;;;;;;;;12.34;100.00;100464.95;1648972;86;20149;-87
2021/10/03 02:59:09;;;;;;;;;;;;;;;12.26;100.00;100455.16;1647662;85;21325;-82
2021/10/03 03:01:34;;;;;;;;;;;;;;;12.26;100.00;100459.12;1644585;86;20209;-82
2021/10/03 03:04:00;;;;;;;;;;;;;;;12.24;100.00;100457.62;1646785;86;20449;-82
2021/10/03 03:06:25;;;;;;;;;;;;;;;12.26;100.00;100460.92;1641799;86;21162;-83
2021/10/03 03:08:51;;;;;;;;;;;;;;;12.26;100.00;100463.58;1647201;86;20191;-82
2021/10/03 03:11:17;;;;;;;;;;;;;;;12.23;100.00;100461.25;1648268;86;21183;-84
2021/10/03 03:13:45;;;;;;;;;;;;;;;12.14;100.00;100461.22;1647304;85;21256;-82
2021/10/03 03:16:11;;;;;;;;;;;;;;;12.15;100.00;100468.19;1648527;86;20692;-84
2021/10/03 03:18:37;;;;;;;;;;;;;;;12.14;100.00;100457.75;1648469;85;20205;-86
2021/10/03 03:21:02;;;;;;;;;;;;;;;12.19;100.00;100454.94;1646835;85;20157;-82
2021/10/03 03:23:28;;;;;;;;;;;;;;;12.17;99.84;100462.22;1646850;86;21140;-83
2021/10/03 03:25:53;;;;;;;;;;;;;;;12.18;99.61;100454.63;1645245;86;20787;-83
2021/10/03 03:28:19;;;;;;;;;;;;;;;12.13;99.60;100456.91;1615628;86;20194;-82
2021/10/03 03:30:45;;;;;;;;;;;;;;;12.11;99.73;100454.91;1644286;86;21030;-81
2021/10/03 03:33:10;;;;;;;;;;;;;;;12.12;99.76;100449.97;1645934;86;20209;-81
2021/10/03 03:35:36;;;;;;;;;;;;;;;12.11;99.63;100446.97;1645933;86;21196;-85
2021/10/03 03:38:01;;;;;;;;;;;;;;;12.10;99.69;100450.59;1646188;86;20276;-80
2021/10/03 03:40:27;;;;;;;;;;;;;;;12.07;99.72;100452.23;1648133;86;20145;-89
2021/10/03 03:42:53;;;;;;;;;;;;;;;12.08;99.51;100449.94;1643845;86;21191;-81
2021/10/03 03:45:20;;;;;;;;;;;;;;;12.04;99.61;100452.55;1648248;86;20185;-83
2021/10/03 03:47:46;;;;;;;;;;;;;;;12.02;99.59;100455.39;1646969;85;21090;-83
2021/10/03 03:50:13;;;;;;;;;;;;;;;12.00;99.69;100454.70;1648165;85;20456;-83
2021/10/03 03:52:39;;;;;;;;;;;;;;;12.00;99.68;100448.59;1646024;86;20195;-82
2021/10/03 03:55:06;;;;;;;;;;;;;;;11.97;99.67;100456.84;1643636;86;20230;-83
2021/10/03 03:57:32;;;;;;;;;;;;;;;11.96;99.64;100453.38;1647669;86;20242;-86
2021/10/03 03:59:57;;;;;;;;;;;;;;;11.91;99.68;100455.61;1649086;86;20720;-82
2021/10/03 04:02:23;;;;;;;;;;;;;;;11.90;99.82;100458.41;1647789;86;20653;-82
2021/10/03 04:04:48;;;;;;;;;;;;;;;11.87;99.76;100450.31;1630478;86;20193;-83
2021/10/03 04:07:14;;;;;;;;;;;;;;;11.84;99.70;100447.98;1642380;86;20180;-85
2021/10/03 04:09:39;;;;;;;;;;;;;;;11.84;100.00;100447.48;1631244;86;20456;-84
2021/10/03 04:12:05;;;;;;;;;;;;;;;11.81;100.00;100447.80;1645294;86;21222;-85
2021/10/03 04:14:31;;;;;;;;;;;;;;;11.82;99.79;100446.82;1633434;87;20763;-83
2021/10/03 04:16:58;;;;;;;;;;;;;;;11.83;99.70;100448.45;1632424;87;20145;-80
2021/10/03 04:19:24;;;;;;;;;;;;;;;11.79;99.94;100447.13;1630678;86;20160;-80
2021/10/03 04:21:49;;;;;;;;;;;;;;;11.78;99.92;100448.11;1632801;86;21180;-81
2021/10/03 04:24:15;;;;;;;;;;;;;;;11.77;99.90;100448.27;1625708;86;21177;-81
2021/10/03 04:26:40;;;;;;;;;;;;;;;11.77;99.81;100453.05;1645125;86;20199;-80
2021/10/03 04:29:06;;;;;;;;;;;;;;;11.74;99.83;100452.55;1640401;86;20505;-84
2021/10/03 04:31:31;;;;;;;;;;;;;;;11.72;99.86;100448.73;1629478;86;20154;-83
2021/10/03 04:33:57;;;;;;;;;;;;;;;11.76;99.64;100451.41;1629965;86;20172;-81
2021/10/03 04:36:24;;;;;;;;;;;;;;;11.79;99.48;100451.58;1631354;86;21037;-80
2021/10/03 04:38:50;;;;;;;;;;;;;;;11.71;99.60;100448.38;1638571;86;20189;-81
2021/10/03 04:41:16;;;;;;;;;;;;;;;11.67;100.00;100449.70;1622106;87;20745;-82
2021/10/03 04:43:42;;;;;;;;;;;;;;;11.67;100.00;100451.02;1625460;87;20747;-81
2021/10/03 04:46:08;;;;;;;;;;;;;;;11.67;100.00;100449.70;1594247;87;20183;-82
2021/10/03 04:48:33;;;;;;;;;;;;;;;11.68;100.00;100448.22;1619317;86;21172;-82
2021/10/03 04:50:59;;;;;;;;;;;;;;;11.71;100.00;100456.32;1621047;87;20141;-82
2021/10/03 04:53:24;;;;;;;;;;;;;;;11.74;100.00;100454.69;1618530;86;20182;-81
2021/10/03 04:55:50;;;;;;;;;;;;;;;11.73;100.00;100453.05;1629751;86;20505;-81
2021/10/03 04:58:16;;;;;;;;;;;;;;;11.78;99.93;100449.43;1618512;86;20162;-86
2021/10/03 05:00:41;;;;;;;;;;;;;;;11.82;99.64;100448.14;1595691;87;22729;-81
2021/10/03 05:03:07;;;;;;;;;;;;;;;11.88;99.40;100452.46;1634080;86;20267;-83
2021/10/03 05:05:33;;;;;;;;;;;;;;;11.89;99.21;100447.01;1625318;87;20248;-82
2021/10/03 05:07:58;;;;;;;;;;;;;;;11.89;99.07;100447.52;1599048;87;20141;-83
2021/10/03 05:10:24;;;;;;;;;;;;;;;11.92;98.85;100443.23;1622648;87;21442;-83
2021/10/03 05:12:49;;;;;;;;;;;;;;;11.91;98.99;100448.17;1625668;86;21098;-81
2021/10/03 05:15:15;;;;;;;;;;;;;;;11.93;98.85;100444.90;1627199;87;20168;-82
2021/10/03 05:17:40;;;;;;;;;;;;;;;11.98;98.51;100451.89;1618288;86;20167;-81
2021/10/03 05:20:07;;;;;;;;;;;;;;;11.96;98.41;100455.17;1621777;87;20139;-87
2021/10/03 05:22:32;;;;;;;;;;;;;;;11.96;98.60;100460.47;1614746;87;20192;-88
2021/10/03 05:24:58;;;;;;;;;;;;;;;12.00;98.66;100465.79;1649857;85;21154;-82
2021/10/03 05:27:23;;;;;;;;;;;;;;;11.95;98.67;100469.41;1633964;86;20208;-83
2021/10/03 05:29:49;;;;;;;;;;;;;;;11.98;98.75;100459.83;1632721;86;20195;-81
2021/10/03 05:32:14;;;;;;;;;;;;;;;11.98;98.81;100460.66;1631942;86;20215;-80
2021/10/03 05:34:40;;;;;;;;;;;;;;;12.05;98.60;100463.48;1631834;86;20509;-80
2021/10/03 05:37:06;;;;;;;;;;;;;;;12.06;98.63;100468.28;1633196;86;21832;-82
2021/10/03 05:39:31;;;;;;;;;;;;;;;12.10;98.49;100465.16;1628351;85;20206;-81
2021/10/03 05:41:57;;;;;;;;;;;;;;;12.12;98.39;100465.85;1632843;86;20898;-81
2021/10/03 05:44:22;;;;;;;;;;;;;;;12.10;98.65;100462.52;1635305;86;20498;-80
2021/10/03 05:46:48;;;;;;;;;;;;;;;12.16;98.71;100457.91;1631741;86;20158;-87
2021/10/03 05:49:14;;;;;;;;;;;;;;;12.19;98.58;100460.23;1636456;86;21182;-80
2021/10/03 05:51:39;;;;;;;;;;;;;;;12.19;98.65;100460.74;1629442;86;20713;-87
2021/10/03 05:54:05;;;;;;;;;;;;;;;12.24;98.55;100462.91;1602381;87;20107;-81
2021/10/03 05:56:31;;;;;;;;;;;;;;;12.27;98.48;100462.09;1631818;86;20166;-82
2021/10/03 05:58:56;;;;;;;;;;;;;;;12.31;98.41;100466.09;1637409;86;20190;-81
2021/10/03 06:01:22;;;;;;;;;;;;;;;12.34;98.41;100460.98;1631369;86;21163;-84
2021/10/03 06:03:50;;;;;;;;;;;;;;;12.32;98.49;100464.27;1641033;87;20149;-81
2021/10/03 06:06:16;;;;;;;;;;;;;;;12.36;98.53;100459.81;1634498;86;20155;-81
2021/10/03 06:08:41;;;;;;;;;;;;;;;12.39;98.51;100461.31;1638581;86;20188;-83
2021/10/03 06:11:07;;;;;;;;;;;;;;;12.41;98.38;100457.19;1630583;86;20130;-82
2021/10/03 06:13:33;;;;;;;;;;;;;;;12.43;98.32;100460.02;1628066;86;21193;-81
2021/10/03 06:15:58;;;;;;;;;;;;;;;12.44;98.39;100457.69;1627017;86;20147;-82
2021/10/03 06:18:24;;;;;;;;;;;;;;;12.45;98.14;100459.35;1633143;86;21234;-82
2021/10/03 06:20:50;;;;;;;;;;;;;;;12.45;98.30;100462.00;1630498;86;20248;-82
2021/10/03 06:23:15;;;;;;;;;;;;;;;12.48;98.64;100460.36;1633009;86;20266;-82
2021/10/03 06:25:41;;;;;;;;;;;;;;;12.53;98.49;100462.02;1634518;86;21190;-85
2021/10/03 06:28:07;;;;;;;;;;;;;;;12.58;98.55;100460.20;1627907;86;20975;-81
2021/10/03 06:30:34;;;;;;;;;;;;;;;12.57;98.51;100456.74;1631265;86;20769;-81
2021/10/03 06:33:00;;;;;;;;;;;;;;;12.65;98.35;100460.41;1634652;87;20212;-81
2021/10/03 06:35:27;;;;;;;;;;;;;;;12.69;98.41;100457.75;1584460;88;20286;-83
2021/10/03 06:37:53;;;;;;;;;;;;;;;12.76;98.17;100461.42;1620822;86;21020;-81
2021/10/03 06:40:18;;;;;;;;;;;;;;;12.81;98.08;100456.45;1622861;86;20735;-82
2021/10/03 06:42:44;;;;;;;;;;;;;;;12.92;97.76;100464.08;1619814;86;20158;-81
2021/10/03 06:45:09;;;;;;;;;;;;;;;13.02;97.49;100461.30;1627298;87;20223;-80
2021/10/03 06:47:35;;;;;;;;;;;;;;;13.11;97.15;100460.78;1628047;86;20164;-81
2021/10/03 06:50:02;;;;;;;;;;;;;;;13.13;96.89;100458.82;1629537;86;21199;-81
2021/10/03 06:52:28;;;;;;;;;;;;;;;13.16;96.82;100466.45;1644449;86;20129;-85
2021/10/03 06:54:53;;;;;;;;;;;;;;;13.19;96.64;100464.79;1635443;86;20614;-80
2021/10/03 06:57:19;;;;;;;;;;;;;;;13.25;96.63;100461.47;1623130;86;20477;-81
2021/10/03 06:59:45;;;;;;;;;;;;;;;13.29;96.41;100456.66;1628239;86;20221;-82
2021/10/03 07:02:14;;;;;;;;;;;;;;;13.31;96.26;100460.47;1622823;86;21982;-83
2021/10/03 07:04:40;;;;;;;;;;;;;;;13.36;95.93;100463.47;1634359;86;20228;-80
2021/10/03 07:07:05;;;;;;;;;;;;;;;13.39;95.88;100465.31;1624633;86;20216;-80
2021/10/03 07:09:31;;;;;;;;;;;;;;;13.39;95.72;100465.80;1629415;86;20158;-80
2021/10/03 07:11:57;;;;;;;;;;;;;;;13.44;95.76;100466.14;1642547;86;20781;-81
2021/10/03 07:14:22;;;;;;;;;;;;;;;13.46;95.83;100470.27;1629612;87;21024;-81
2021/10/03 07:16:48;;;;;;;;;;;;;;;13.45;95.67;100466.45;1644406;86;20144;-84
2021/10/03 07:19:13;;;;;;;;;;;;;;;13.51;95.73;100475.07;1628759;86;20757;-81
2021/10/03 07:21:39;;;;;;;;;;;;;;;13.51;95.83;100465.78;1626643;86;20161;-83
2021/10/03 07:24:05;;;;;;;;;;;;;;;13.53;95.53;100469.12;1617820;87;20148;-80
2021/10/03 07:26:30;;;;;;;;;;;;;;;13.63;95.51;100471.59;1633229;86;21981;-82
2021/10/03 07:28:56;;;;;;;;;;;;;;;13.68;95.40;100471.90;1630141;86;20179;-79
2021/10/03 07:31:22;;;;;;;;;;;;;;;13.76;95.18;100475.04;1629024;86;20153;-83
2021/10/03 07:33:48;;;;;;;;;;;;;;;13.78;94.73;100479.19;1594997;88;20151;-80
2021/10/03 07:36:17;;;;;;;;;;;;;;;13.81;94.76;100472.70;1622899;87;20128;-81
2021/10/03 07:38:44;;;;;;;;;;;;;;;13.77;95.05;100476.20;1622097;87;20498;-79
2021/10/03 07:41:09;;;;;;;;;;;;;;;13.84;94.97;100471.03;1623069;87;20152;-79
2021/10/03 07:43:35;;;;;;;;;;;;;;;13.92;94.45;100475.02;1623439;87;20192;-83
2021/10/03 07:46:01;;;;;;;;;;;;;;;13.94;94.42;100475.66;1620973;87;20478;-80
2021/10/03 07:48:26;;;;;;;;;;;;;;;14.04;94.46;100476.78;1632008;86;20145;-82
2021/10/03 07:50:52;;;;;;;;;;;;;;;14.06;93.83;100474.81;1629755;86;21173;-88
2021/10/03 07:53:17;;;;;;;;;;;;;;;14.09;93.61;100470.97;1621226;86;20800;-81
2021/10/03 07:55:44;;;;;;;;;;;;;;;14.05;93.89;100472.33;1625723;86;20179;-84
2021/10/03 07:58:10;;;;;;;;;;;;;;;14.11;93.31;100466.33;1625287;86;20229;-79
2021/10/03 08:00:35;;;;;;;;;;;;;;;14.13;92.63;100465.66;1632870;86;20439;-84
2021/10/03 08:03:01;;;;;;;;;;;;;;;14.19;93.28;100463.64;1611094;87;21959;-83
2021/10/03 08:05:29;;;;;;;;;;;;;;;14.25;93.06;100464.28;1618250;87;20596;-80
2021/10/03 08:07:54;;;;;;;;;;;;;;;14.38;92.65;100461.56;1616719;87;20324;-81
2021/10/03 08:10:20;;;;;;;;;;;;;;;14.48;92.38;100466.15;1629544;86;20446;-80
2021/10/03 08:12:47;;;;;;;;;;;;;;;14.56;92.02;100462.14;1630232;86;20248;-84
2021/10/03 08:15:13;;;;;;;;;;;;;;;14.65;91.49;100464.27;1633343;86;21179;-83
2021/10/03 08:17:38;;;;;;;;;;;;;;;14.76;91.15;100467.02;1622847;86;20315;-82
2021/10/03 08:20:06;;;;;;;;;;;;;;;14.83;90.09;100461.34;1630148;86;21279;-84
2021/10/03 08:22:31;;;;;;;;;;;;;;;14.84;89.19;100458.50;1602796;87;20264;-82
2021/10/03 08:24:57;;;;;;;;;;;;;;;14.91;88.88;100467.92;1627966;86;20236;-84
2021/10/03 08:27:23;;;;;;;;;;;;;;;14.98;88.45;100465.41;1626686;86;21255;-79
2021/10/03 08:29:48;;;;;;;;;;;;;;;15.04;88.20;100457.53;1627697;86;20457;-82
2021/10/03 08:32:15;;;;;;;;;;;;;;;15.13;87.93;100458.80;1629226;87;20196;-85
2021/10/03 08:34:41;;;;;;;;;;;;;;;15.17;87.60;100454.78;1632737;87;20192;-82
2021/10/03 08:37:06;;;;;;;;;;;;;;;15.20;87.52;100460.56;1633237;87;20159;-79
2021/10/03 08:39:32;;;;;;;;;;;;;;;15.26;87.43;100462.51;1628007;87;21160;-79
2021/10/03 08:41:57;;;;;;;;;;;;;;;15.29;87.08;100461.33;1631164;87;20147;-79
2021/10/03 08:44:27;;;;;;;;;;;;;;;15.33;86.93;100457.28;1636547;86;20174;-79
2021/10/03 08:46:52;;;;;;;;;;;;;;;15.33;86.40;100454.63;1628842;86;20183;-80
2021/10/03 08:49:18;;;;;;;;;;;;;;;15.32;86.18;100458.31;1629720;87;20212;-80
2021/10/03 08:51:47;;;;;;;;;;;;;;;15.37;86.22;100451.94;1633509;86;21202;-80
2021/10/03 08:54:16;;;;;;;;;;;;;;;15.38;85.64;100460.26;1633869;87;20159;-78
2021/10/03 08:56:40;;;;;;;;;;;;;;;15.44;85.62;100456.88;1633213;87;20135;-80
2021/10/03 08:59:06;;;;;;;;;;;;;;;15.48;85.43;100451.19;1633311;86;20158;-81
2021/10/03 09:01:46;;;;;;;;;;;;;;;15.51;85.45;100453.49;1610566;87;20330;-82
2021/10/03 09:04:32;;;;;;;;;;;;;;;15.55;85.24;100454.28;1639021;86;22859;-82
2021/10/03 09:07:13;;;;;;;;;;;;;;;15.65;85.45;100455.34;1638224;87;20375;-76
2021/10/03 09:09:55;;;;;;;;;;;;;;;15.66;84.53;100449.02;1637798;86;20196;-77
2021/10/03 09:12:32;;;;;;;;;;;;;;;15.69;84.57;100443.33;1638893;87;20727;-80
2021/10/03 09:14:59;;;;;;;;;;;;;;;15.76;84.25;100446.89;1638737;87;20225;-76
2021/10/03 09:17:25;;;;;;;;;;;;;;;15.83;83.53;100448.34;1614033;86;21074;-77
2021/10/03 09:20:09;;;;;;;;;;;;;;;15.86;82.43;100446.64;1638104;86;20211;-79
2021/10/03 09:22:59;;;;;;;;;;;;;;;15.90;82.94;100441.80;1639961;86;20184;-79
2021/10/03 09:25:44;;;;;;;;;;;;;;;15.98;81.96;100440.36;1638389;86;20223;-85
2021/10/03 09:28:14;;;;;;;;;;;;;;;16.00;81.61;100423.68;1638065;86;20166;-78
2021/10/03 09:31:01;;;;;;;;;;;;;;;16.09;80.94;100430.56;1639537;87;22434;-79
2021/10/03 09:33:45;;;;;;;;;;;;;;;16.05;81.07;100425.79;1638032;87;20154;-86
2021/10/03 09:36:12;;;;;;;;;;;;;;;16.14;81.18;100418.86;1639351;87;20498;-80
2021/10/03 09:38:59;;;;;;;;;;;;;;;16.23;80.36;100421.41;1640838;86;20619;-83
2021/10/03 09:41:29;;;;;;;;;;;;;;;16.26;79.67;100420.53;1639084;87;20607;-78
2021/10/03 09:43:56;;;;;;;;;;;;;;;16.37;79.04;100418.41;1639261;87;21947;-81
2021/10/03 09:46:50;;;;;;;;;;;;;;;16.44;79.23;100417.46;1638867;87;20530;-92
2021/10/03 09:49:18;;;;;;;;;;;;;;;16.56;78.46;100411.62;1639129;87;20224;-81
2021/10/03 09:51:47;;;;;;;;;;;;;;;16.69;78.14;100417.11;1639895;86;20556;-85
2021/10/03 09:54:13;;;;;;;;;;;;;;;16.79;78.07;100417.60;1638722;87;20217;-87
2021/10/03 09:56:39;;;;;;;;;;;;;;;16.94;78.34;100422.92;1637787;86;22451;-81
2021/10/03 09:59:05;;;;;;;;;;;;;;;16.96;76.78;100417.39;1639606;86;20135;-82
2021/10/03 10:01:33;;;;;;;;;;;;;;;17.01;77.42;100417.63;1637333;86;20212;-87
2021/10/03 10:04:00;;;;;;;;;;;;;;;17.00;76.74;100424.00;1636340;86;20611;-80
2021/10/03 10:06:27;;;;;;;;;;;;;;;17.10;76.96;100417.81;1637536;86;20250;-82
2021/10/03 10:08:55;;;;;;;;;;;;;;;17.14;76.92;100411.08;1605725;86;20124;-90
2021/10/03 10:11:24;;;;;;;;;;;;;;;17.15;75.88;100415.41;1616029;87;20273;-83
2021/10/03 10:13:55;;;;;;;;;;;;;;;17.13;75.41;100407.27;1619647;88;20358;-84
2021/10/03 10:16:44;;;;;;;;;;;;;;;17.16;75.79;100407.70;1621181;87;20152;-82
2021/10/03 10:19:40;;;;;;;;;;;;;;;17.21;75.82;100406.64;1619937;87;36290;-82
2021/10/03 10:22:15;;;;;;;;;;;;;;;17.30;75.62;100401.14;1599570;88;21942;-84
2021/10/03 10:24:49;;;;;;;;;;;;;;;17.38;75.66;100396.98;1619043;88;20207;-82
2021/10/03 10:27:25;;;;;;;;;;;;;;;17.39;75.34;100398.64;1619540;88;20181;-86
2021/10/03 10:30:00;;;;;;;;;;;;;;;17.43;74.95;100399.88;1619747;88;20228;-85
2021/10/03 10:32:31;;;;;;;;;;;;;;;17.46;74.68;100400.02;1628364;86;20499;-80
2021/10/03 10:35:12;;;;;;;;;;;;;;;17.49;74.19;100398.30;1633773;86;21197;-79
2021/10/03 10:37:56;;;;;;;;;;;;;;;17.56;74.34;100399.98;1647959;85;20216;-81
2021/10/03 10:40:26;;;;;;;;;;;;;;;17.58;74.33;100389.92;1640764;85;20230;-85
2021/10/03 10:42:56;;;;;;;;;;;;;;;17.68;74.39;100390.08;1648126;85;20222;-80
2021/10/03 10:45:36;;;;;;;;;;;;;;;17.73;73.76;100384.99;1642806;85;20318;-83
2021/10/03 10:48:16;;;;;;;;;;;;;;;17.81;73.68;100370.13;1618542;87;20429;-80
2021/10/03 10:50:51;;;;;;;;;;;;;;;17.79;72.53;100370.84;1629224;86;20444;-82
2021/10/03 10:53:18;;;;;;;;;;;;;;;17.81;72.27;100369.31;1613480;87;20643;-85
2021/10/03 10:56:02;;;;;;;;;;;;;;;17.90;72.26;100369.48;1648804;85;20330;-79
2021/10/03 10:58:28;;;;;;;;;;;;;;;17.99;72.59;100362.11;1617181;87;21117;-85
2021/10/03 11:01:00;;;;;;;;;;;;;;;17.99;71.38;100368.78;1634708;85;21089;-85
2021/10/03 11:03:50;;;;;;;;;;;;;;;18.05;70.64;100374.67;1644356;85;20178;-84
2021/10/03 11:06:28;;;;;;;;;;;;;;;18.03;70.30;100368.70;1637622;85;20171;-82
2021/10/03 11:09:00;;;;;;;;;;;;;;;18.11;70.29;100368.00;1637232;85;20200;-81
2021/10/03 11:11:31;;;;;;;;;;;;;;;18.12;69.98;100365.66;1613823;87;20273;-81
2021/10/03 11:14:01;;;;;;;;;;;;;;;18.21;69.26;100366.80;1609798;87;21183;-80
2021/10/03 11:16:30;;;;;;;;;;;;;;;18.25;69.77;100362.19;1636650;85;20272;-81
2021/10/03 11:19:10;;;;;;;;;;;;;;;18.31;69.66;100367.25;1595464;87;20295;-82
2021/10/03 11:21:39;;;;;;;;;;;;;;;18.34;69.89;100366.03;1614358;87;20146;-79
2021/10/03 11:24:07;;;;;;;;;;;;;;;18.35;69.52;100367.66;1647960;85;20472;-86
2021/10/03 11:27:01;;;;;;;;;;;;;;;18.45;68.97;100366.25;1624421;85;21700;-83
2021/10/03 11:29:31;;;;;;;;;;;;;;;18.49;68.60;100370.70;1649216;85;20235;-79
2021/10/03 11:32:00;;;;;;;;;;;;;;;18.57;68.94;100373.17;1638880;85;20178;-82
2021/10/03 11:34:38;;;;;;;;;;;;;;;18.59;67.69;100369.77;1605227;88;20196;-78
2021/10/03 11:37:07;;;;;;;;;;;;;;;18.63;67.96;100373.70;1607655;87;20197;-79
2021/10/03 11:39:45;;;;;;;;;;;;;;;18.63;67.92;100367.53;1601406;88;21123;-88
2021/10/03 11:42:14;;;;;;;;;;;;;;;18.71;67.39;100377.22;1607717;87;20156;-85
2021/10/03 11:44:40;;;;;;;;;;;;;;;18.80;67.22;100373.31;1608999;87;20157;-81
2021/10/03 11:47:11;;;;;;;;;;;;;;;18.86;66.95;100375.70;1585661;88;20247;-80
2021/10/03 11:49:38;;;;;;;;;;;;;;;18.96;67.01;100371.58;1605888;88;20245;-79
2021/10/03 11:52:07;;;;;;;;;;;;;;;19.03;66.80;100368.08;1605879;87;21970;-80
2021/10/03 11:54:39;;;;;;;;;;;;;;;19.04;66.47;100364.39;1566852;88;20200;-85
2021/10/03 11:57:20;;;;;;;;;;;;;;;19.04;65.48;100355.02;1607472;87;20234;-80
2021/10/03 11:59:46;;;;;;;;;;;;;;;19.14;65.65;100354.06;1610268;87;20253;-80
2021/10/03 12:02:13;;;;;;;;;;;;;;;19.03;65.38;100346.14;1606574;87;20227;-79
2021/10/03 12:04:59;;;;;;;;;;;;;;;19.12;65.70;100342.23;1605410;88;21934;-78
2021/10/03 12:07:25;;;;;;;;;;;;;;;19.21;65.70;100342.84;1610745;87;20291;-81
2021/10/03 12:10:03;;;;;;;;;;;;;;;19.35;65.63;100342.30;1614105;87;20531;-84
2021/10/03 12:12:50;;;;;;;;;;;;;;;19.50;65.57;100343.41;1609816;87;20118;-78
2021/10/03 12:15:38;;;;;;;;;;;;;;;19.56;64.54;100343.91;1609349;87;20221;-78
2021/10/03 12:18:05;;;;;;;;;;;;;;;19.51;63.74;100334.33;1606693;88;21299;-81
2021/10/03 12:20:47;;;;;;;;;;;;;;;19.58;63.65;100334.30;1614272;87;20185;-84
2021/10/03 12:23:13;;;;;;;;;;;;;;;19.74;63.33;100331.97;1613540;87;20261;-80
2021/10/03 12:25:39;;;;;;;;;;;;;;;19.85;63.26;100318.98;1610300;87;20201;-77
2021/10/03 12:28:05;;;;;;;;;;;;;;;19.91;63.10;100312.77;1603300;88;20222;-84
2021/10/03 12:30:56;;;;;;;;;;;;;;;19.96;62.75;100315.63;1613228;87;21129;-84
2021/10/03 12:33:19;;;;;;;;;;;;;;;19.96;63.45;100320.98;1624673;86;20502;-78
2021/10/03 12:35:59;;;;;;;;;;;;;;;20.17;62.94;100323.06;1629741;87;20204;-80
2021/10/03 12:38:32;;;;;;;;;;;;;;;20.28;62.46;100321.56;1630454;86;20175;-82